sensor_id;sensor_type;location;lat;lon;timestamp;P1;durP1;ratioP1;P2;durP2;ratioP2
14760;SDS011;7472;45.396;5.272;2022-12-29T00:01:37;14.60;;;10.07;;
14760;SDS011;7472;45.396;5.272;2022-12-29T00:04:05;13.18;;;10.43;;
14760;SDS011;7472;45.396;5.272;2022-12-29T00:06:33;11.18;;;8.85;;
14760;SDS011;7472;45.396;5.272;2022-12-29T00:09:00;12.63;;;9.63;;
14760;SDS011;7472;45.396;5.272;2022-12-29T00:11:27;16.08;;;9.40;;
14760;SDS011;7472;45.396;5.272;2022-12-29T00:13:56;13.60;;;9.27;;
14760;SDS011;7472;45.396;5.272;2022-12-29T00:16:42;14.10;;;8.35;;
14760;SDS011;7472;45.396;5.272;2022-12-29T00:19:10;10.20;;;8.48;;
14760;SDS011;7472;45.396;5.272;2022-12-29T00:21:51;12.02;;;9.00;;
14760;SDS011;7472;45.396;5.272;2022-12-29T00:24:36;10.30;;;7.38;;
14760;SDS011;7472;45.396;5.272;2022-12-29T00:27:21;10.57;;;7.97;;
14760;SDS011;7472;45.396;5.272;2022-12-29T00:30:09;11.80;;;9.02;;
14760;SDS011;7472;45.396;5.272;2022-12-29T00:32:55;11.65;;;7.93;;
14760;SDS011;7472;45.396;5.272;2022-12-29T00:35:42;12.77;;;8.27;;
14760;SDS011;7472;45.396;5.272;2022-12-29T00:38:11;12.80;;;8.27;;
14760;SDS011;7472;45.396;5.272;2022-12-29T00:40:57;14.20;;;8.60;;
14760;SDS011;7472;45.396;5.272;2022-12-29T00:43:42;9.75;;;7.03;;
14760;SDS011;7472;45.396;5.272;2022-12-29T00:46:28;11.15;;;8.38;;
14760;SDS011;7472;45.396;5.272;2022-12-29T00:48:56;12.95;;;8.95;;
14760;SDS011;7472;45.396;5.272;2022-12-29T00:51:41;10.27;;;7.18;;
14760;SDS011;7472;45.396;5.272;2022-12-29T00:54:09;14.50;;;8.52;;
14760;SDS011;7472;45.396;5.272;2022-12-29T00:56:37;9.52;;;8.35;;
14760;SDS011;7472;45.396;5.272;2022-12-29T00:59:05;11.05;;;8.15;;
14760;SDS011;7472;45.396;5.272;2022-12-29T01:01:34;12.57;;;8.15;;
14760;SDS011;7472;45.396;5.272;2022-12-29T01:04:01;13.70;;;9.13;;
14760;SDS011;7472;45.396;5.272;2022-12-29T01:06:29;12.27;;;8.90;;
14760;SDS011;7472;45.396;5.272;2022-12-29T01:08:56;12.27;;;9.27;;
14760;SDS011;7472;45.396;5.272;2022-12-29T01:11:38;13.10;;;8.88;;
14760;SDS011;7472;45.396;5.272;2022-12-29T01:14:05;13.05;;;9.73;;
14760;SDS011;7472;45.396;5.272;2022-12-29T01:16:34;13.27;;;9.15;;
14760;SDS011;7472;45.396;5.272;2022-12-29T01:19:02;10.52;;;8.88;;
14760;SDS011;7472;45.396;5.272;2022-12-29T01:21:29;11.40;;;8.73;;
14760;SDS011;7472;45.396;5.272;2022-12-29T01:23:57;13.80;;;9.02;;
14760;SDS011;7472;45.396;5.272;2022-12-29T01:26:24;15.50;;;8.48;;
14760;SDS011;7472;45.396;5.272;2022-12-29T01:28:52;13.95;;;8.80;;
14760;SDS011;7472;45.396;5.272;2022-12-29T01:31:19;15.25;;;9.43;;
14760;SDS011;7472;45.396;5.272;2022-12-29T01:33:48;12.43;;;8.50;;
14760;SDS011;7472;45.396;5.272;2022-12-29T01:36:16;11.45;;;8.38;;
14760;SDS011;7472;45.396;5.272;2022-12-29T01:38:43;10.95;;;8.55;;
14760;SDS011;7472;45.396;5.272;2022-12-29T01:41:12;11.13;;;8.85;;
14760;SDS011;7472;45.396;5.272;2022-12-29T01:43:40;16.10;;;8.57;;
14760;SDS011;7472;45.396;5.272;2022-12-29T01:46:09;9.63;;;8.32;;
14760;SDS011;7472;45.396;5.272;2022-12-29T01:48:41;12.02;;;7.63;;
14760;SDS011;7472;45.396;5.272;2022-12-29T01:51:10;9.88;;;7.35;;
14760;SDS011;7472;45.396;5.272;2022-12-29T01:53:37;11.85;;;8.10;;
14760;SDS011;7472;45.396;5.272;2022-12-29T01:56:06;9.85;;;7.57;;
14760;SDS011;7472;45.396;5.272;2022-12-29T01:58:35;9.85;;;7.95;;
14760;SDS011;7472;45.396;5.272;2022-12-29T02:01:04;10.15;;;8.93;;
14760;SDS011;7472;45.396;5.272;2022-12-29T02:03:32;10.02;;;8.25;;
14760;SDS011;7472;45.396;5.272;2022-12-29T02:06:01;12.00;;;8.30;;
14760;SDS011;7472;45.396;5.272;2022-12-29T02:08:31;13.57;;;8.32;;
14760;SDS011;7472;45.396;5.272;2022-12-29T02:10:59;11.77;;;8.05;;
14760;SDS011;7472;45.396;5.272;2022-12-29T02:13:27;9.43;;;8.00;;
14760;SDS011;7472;45.396;5.272;2022-12-29T02:15:56;13.38;;;8.00;;
14760;SDS011;7472;45.396;5.272;2022-12-29T02:18:32;11.23;;;7.93;;
14760;SDS011;7472;45.396;5.272;2022-12-29T02:21:18;15.65;;;8.23;;
14760;SDS011;7472;45.396;5.272;2022-12-29T02:23:57;9.57;;;6.82;;
14760;SDS011;7472;45.396;5.272;2022-12-29T02:26:29;10.27;;;7.32;;
14760;SDS011;7472;45.396;5.272;2022-12-29T02:31:49;13.68;;;8.02;;
14760;SDS011;7472;45.396;5.272;2022-12-29T02:34:20;12.98;;;7.50;;
14760;SDS011;7472;45.396;5.272;2022-12-29T02:36:51;9.80;;;7.45;;
14760;SDS011;7472;45.396;5.272;2022-12-29T02:39:21;9.27;;;7.43;;
14760;SDS011;7472;45.396;5.272;2022-12-29T02:41:53;9.95;;;8.15;;
14760;SDS011;7472;45.396;5.272;2022-12-29T02:44:24;12.63;;;8.25;;
14760;SDS011;7472;45.396;5.272;2022-12-29T02:46:56;11.77;;;7.70;;
14760;SDS011;7472;45.396;5.272;2022-12-29T02:49:27;10.75;;;7.82;;
14760;SDS011;7472;45.396;5.272;2022-12-29T02:51:59;12.07;;;8.15;;
14760;SDS011;7472;45.396;5.272;2022-12-29T02:54:28;12.23;;;7.97;;
14760;SDS011;7472;45.396;5.272;2022-12-29T02:57:08;12.80;;;7.55;;
14760;SDS011;7472;45.396;5.272;2022-12-29T02:59:36;9.68;;;7.60;;
14760;SDS011;7472;45.396;5.272;2022-12-29T03:02:12;10.90;;;7.55;;
14760;SDS011;7472;45.396;5.272;2022-12-29T03:04:51;11.95;;;8.23;;
14760;SDS011;7472;45.396;5.272;2022-12-29T03:07:22;9.73;;;8.00;;
14760;SDS011;7472;45.396;5.272;2022-12-29T03:09:52;9.60;;;7.35;;
14760;SDS011;7472;45.396;5.272;2022-12-29T03:12:24;14.02;;;7.07;;
14760;SDS011;7472;45.396;5.272;2022-12-29T03:15:15;10.02;;;7.20;;
14760;SDS011;7472;45.396;5.272;2022-12-29T03:18:06;11.65;;;8.50;;
14760;SDS011;7472;45.396;5.272;2022-12-29T03:20:38;11.65;;;9.05;;
14760;SDS011;7472;45.396;5.272;2022-12-29T03:23:06;12.00;;;9.55;;
14760;SDS011;7472;45.396;5.272;2022-12-29T03:25:35;12.90;;;9.55;;
14760;SDS011;7472;45.396;5.272;2022-12-29T03:28:06;12.90;;;9.90;;
14760;SDS011;7472;45.396;5.272;2022-12-29T03:30:33;11.02;;;9.73;;
14760;SDS011;7472;45.396;5.272;2022-12-29T03:33:02;13.10;;;9.95;;
14760;SDS011;7472;45.396;5.272;2022-12-29T03:35:32;11.50;;;9.32;;
14760;SDS011;7472;45.396;5.272;2022-12-29T03:38:03;15.48;;;9.90;;
14760;SDS011;7472;45.396;5.272;2022-12-29T03:40:32;10.52;;;9.27;;
14760;SDS011;7472;45.396;5.272;2022-12-29T03:43:01;13.50;;;10.40;;
14760;SDS011;7472;45.396;5.272;2022-12-29T03:45:29;11.88;;;9.77;;
14760;SDS011;7472;45.396;5.272;2022-12-29T03:47:56;12.50;;;10.23;;
14760;SDS011;7472;45.396;5.272;2022-12-29T03:50:24;12.43;;;10.48;;
14760;SDS011;7472;45.396;5.272;2022-12-29T03:52:53;16.35;;;11.32;;
14760;SDS011;7472;45.396;5.272;2022-12-29T03:55:20;18.45;;;11.80;;
14760;SDS011;7472;45.396;5.272;2022-12-29T03:57:47;14.68;;;10.95;;
14760;SDS011;7472;45.396;5.272;2022-12-29T04:00:15;12.13;;;10.88;;
14760;SDS011;7472;45.396;5.272;2022-12-29T04:02:42;13.15;;;11.75;;
14760;SDS011;7472;45.396;5.272;2022-12-29T04:05:10;14.20;;;10.95;;
14760;SDS011;7472;45.396;5.272;2022-12-29T04:07:37;14.23;;;11.07;;
14760;SDS011;7472;45.396;5.272;2022-12-29T04:10:06;15.88;;;10.45;;
14760;SDS011;7472;45.396;5.272;2022-12-29T04:12:34;14.00;;;10.77;;
14760;SDS011;7472;45.396;5.272;2022-12-29T04:15:01;13.02;;;8.35;;
14760;SDS011;7472;45.396;5.272;2022-12-29T04:17:29;9.90;;;8.40;;
14760;SDS011;7472;45.396;5.272;2022-12-29T04:19:56;10.60;;;8.35;;
14760;SDS011;7472;45.396;5.272;2022-12-29T04:22:37;15.40;;;8.48;;
14760;SDS011;7472;45.396;5.272;2022-12-29T04:25:07;11.75;;;8.93;;
14760;SDS011;7472;45.396;5.272;2022-12-29T04:27:34;12.15;;;8.27;;
14760;SDS011;7472;45.396;5.272;2022-12-29T04:30:02;12.23;;;9.52;;
14760;SDS011;7472;45.396;5.272;2022-12-29T04:32:29;10.73;;;8.05;;
14760;SDS011;7472;45.396;5.272;2022-12-29T04:34:57;13.98;;;8.63;;
14760;SDS011;7472;45.396;5.272;2022-12-29T04:37:24;12.95;;;8.27;;
14760;SDS011;7472;45.396;5.272;2022-12-29T04:39:51;10.20;;;7.47;;
14760;SDS011;7472;45.396;5.272;2022-12-29T04:42:20;9.27;;;6.53;;
14760;SDS011;7472;45.396;5.272;2022-12-29T04:44:48;10.57;;;6.55;;
14760;SDS011;7472;45.396;5.272;2022-12-29T04:47:15;6.82;;;5.88;;
14760;SDS011;7472;45.396;5.272;2022-12-29T04:49:42;11.10;;;6.38;;
14760;SDS011;7472;45.396;5.272;2022-12-29T04:52:10;6.95;;;6.00;;
14760;SDS011;7472;45.396;5.272;2022-12-29T04:54:37;7.78;;;5.78;;
14760;SDS011;7472;45.396;5.272;2022-12-29T04:57:05;8.30;;;5.80;;
14760;SDS011;7472;45.396;5.272;2022-12-29T04:59:33;7.32;;;5.72;;
14760;SDS011;7472;45.396;5.272;2022-12-29T05:02:01;9.60;;;5.43;;
14760;SDS011;7472;45.396;5.272;2022-12-29T05:04:28;9.38;;;5.68;;
14760;SDS011;7472;45.396;5.272;2022-12-29T05:06:56;8.23;;;5.35;;
14760;SDS011;7472;45.396;5.272;2022-12-29T05:09:23;8.73;;;5.40;;
14760;SDS011;7472;45.396;5.272;2022-12-29T05:11:50;7.13;;;4.80;;
14760;SDS011;7472;45.396;5.272;2022-12-29T05:14:18;9.88;;;6.35;;
14760;SDS011;7472;45.396;5.272;2022-12-29T05:16:47;12.82;;;7.13;;
14760;SDS011;7472;45.396;5.272;2022-12-29T05:19:14;7.43;;;6.00;;
14760;SDS011;7472;45.396;5.272;2022-12-29T05:21:41;7.10;;;4.82;;
14760;SDS011;7472;45.396;5.272;2022-12-29T05:24:09;8.68;;;5.18;;
14760;SDS011;7472;45.396;5.272;2022-12-29T05:26:36;6.28;;;4.63;;
14760;SDS011;7472;45.396;5.272;2022-12-29T05:29:04;7.53;;;4.40;;
14760;SDS011;7472;45.396;5.272;2022-12-29T05:31:31;8.30;;;4.55;;
14760;SDS011;7472;45.396;5.272;2022-12-29T05:34:02;6.68;;;4.38;;
14760;SDS011;7472;45.396;5.272;2022-12-29T05:36:29;5.97;;;4.70;;
14760;SDS011;7472;45.396;5.272;2022-12-29T05:38:57;5.40;;;4.35;;
14760;SDS011;7472;45.396;5.272;2022-12-29T05:41:24;9.88;;;4.25;;
14760;SDS011;7472;45.396;5.272;2022-12-29T05:43:51;7.90;;;4.65;;
14760;SDS011;7472;45.396;5.272;2022-12-29T05:46:19;7.78;;;5.57;;
14760;SDS011;7472;45.396;5.272;2022-12-29T05:48:46;6.85;;;5.65;;
14760;SDS011;7472;45.396;5.272;2022-12-29T05:51:15;9.05;;;4.55;;
14760;SDS011;7472;45.396;5.272;2022-12-29T05:53:42;4.47;;;4.00;;
14760;SDS011;7472;45.396;5.272;2022-12-29T05:56:10;7.90;;;5.07;;
14760;SDS011;7472;45.396;5.272;2022-12-29T05:58:37;5.57;;;5.03;;
14760;SDS011;7472;45.396;5.272;2022-12-29T06:01:05;6.47;;;4.65;;
14760;SDS011;7472;45.396;5.272;2022-12-29T06:03:32;6.40;;;4.57;;
14760;SDS011;7472;45.396;5.272;2022-12-29T06:05:59;5.50;;;4.90;;
14760;SDS011;7472;45.396;5.272;2022-12-29T06:08:28;6.68;;;4.68;;
14760;SDS011;7472;45.396;5.272;2022-12-29T06:10:56;6.78;;;4.53;;
14760;SDS011;7472;45.396;5.272;2022-12-29T06:13:23;4.85;;;3.97;;
14760;SDS011;7472;45.396;5.272;2022-12-29T06:15:51;6.88;;;4.20;;
14760;SDS011;7472;45.396;5.272;2022-12-29T06:18:18;7.80;;;5.07;;
14760;SDS011;7472;45.396;5.272;2022-12-29T06:20:46;8.07;;;4.82;;
14760;SDS011;7472;45.396;5.272;2022-12-29T06:23:13;6.82;;;3.88;;
14760;SDS011;7472;45.396;5.272;2022-12-29T06:25:43;6.40;;;4.70;;
14760;SDS011;7472;45.396;5.272;2022-12-29T06:28:10;5.72;;;4.18;;
14760;SDS011;7472;45.396;5.272;2022-12-29T06:30:37;4.43;;;3.97;;
14760;SDS011;7472;45.396;5.272;2022-12-29T06:33:05;5.35;;;4.57;;
14760;SDS011;7472;45.396;5.272;2022-12-29T06:35:33;6.63;;;4.70;;
14760;SDS011;7472;45.396;5.272;2022-12-29T06:38:01;7.60;;;4.15;;
14760;SDS011;7472;45.396;5.272;2022-12-29T06:40:28;9.27;;;4.13;;
14760;SDS011;7472;45.396;5.272;2022-12-29T06:42:57;8.63;;;4.78;;
14760;SDS011;7472;45.396;5.272;2022-12-29T06:45:24;9.00;;;4.78;;
14760;SDS011;7472;45.396;5.272;2022-12-29T06:47:52;8.70;;;4.22;;
14760;SDS011;7472;45.396;5.272;2022-12-29T06:50:19;8.02;;;4.30;;
14760;SDS011;7472;45.396;5.272;2022-12-29T06:52:47;127.88;;;71.82;;
14760;SDS011;7472;45.396;5.272;2022-12-29T06:55:14;102.10;;;70.32;;
14760;SDS011;7472;45.396;5.272;2022-12-29T06:57:41;101.30;;;59.92;;
14760;SDS011;7472;45.396;5.272;2022-12-29T07:00:11;116.07;;;60.03;;
14760;SDS011;7472;45.396;5.272;2022-12-29T07:02:38;158.82;;;76.88;;
14760;SDS011;7472;45.396;5.272;2022-12-29T07:05:06;133.20;;;62.88;;
14760;SDS011;7472;45.396;5.272;2022-12-29T07:07:34;56.22;;;28.30;;
14760;SDS011;7472;45.396;5.272;2022-12-29T07:10:02;146.80;;;61.90;;
14760;SDS011;7472;45.396;5.272;2022-12-29T07:12:30;76.90;;;36.97;;
14760;SDS011;7472;45.396;5.272;2022-12-29T07:14:57;21.45;;;12.95;;
14760;SDS011;7472;45.396;5.272;2022-12-29T07:17:26;8.57;;;6.45;;
14760;SDS011;7472;45.396;5.272;2022-12-29T07:19:53;4.07;;;3.65;;
14760;SDS011;7472;45.396;5.272;2022-12-29T07:22:21;13.98;;;5.10;;
14760;SDS011;7472;45.396;5.272;2022-12-29T07:24:48;8.55;;;5.55;;
14760;SDS011;7472;45.396;5.272;2022-12-29T07:27:15;7.05;;;5.28;;
14760;SDS011;7472;45.396;5.272;2022-12-29T07:29:43;9.13;;;6.15;;
14760;SDS011;7472;45.396;5.272;2022-12-29T07:32:10;9.43;;;6.55;;
14760;SDS011;7472;45.396;5.272;2022-12-29T07:34:39;11.07;;;7.15;;
14760;SDS011;7472;45.396;5.272;2022-12-29T07:37:06;9.95;;;6.75;;
14760;SDS011;7472;45.396;5.272;2022-12-29T07:39:34;10.73;;;6.43;;
14760;SDS011;7472;45.396;5.272;2022-12-29T07:42:01;11.77;;;7.90;;
14760;SDS011;7472;45.396;5.272;2022-12-29T07:44:29;10.68;;;8.90;;
14760;SDS011;7472;45.396;5.272;2022-12-29T07:46:59;14.70;;;8.93;;
14760;SDS011;7472;45.396;5.272;2022-12-29T07:49:26;11.30;;;8.68;;
14760;SDS011;7472;45.396;5.272;2022-12-29T07:51:55;9.75;;;7.80;;
14760;SDS011;7472;45.396;5.272;2022-12-29T07:54:22;11.68;;;7.75;;
14760;SDS011;7472;45.396;5.272;2022-12-29T07:56:50;12.07;;;9.02;;
14760;SDS011;7472;45.396;5.272;2022-12-29T07:59:17;8.70;;;7.18;;
14760;SDS011;7472;45.396;5.272;2022-12-29T08:01:45;10.32;;;7.60;;
14760;SDS011;7472;45.396;5.272;2022-12-29T08:04:12;8.85;;;6.57;;
14760;SDS011;7472;45.396;5.272;2022-12-29T08:06:40;11.25;;;7.63;;
14760;SDS011;7472;45.396;5.272;2022-12-29T08:09:09;9.38;;;7.60;;
14760;SDS011;7472;45.396;5.272;2022-12-29T08:11:36;10.50;;;8.02;;
14760;SDS011;7472;45.396;5.272;2022-12-29T08:14:03;9.45;;;7.25;;
14760;SDS011;7472;45.396;5.272;2022-12-29T08:16:31;9.63;;;7.13;;
14760;SDS011;7472;45.396;5.272;2022-12-29T08:18:58;9.85;;;7.13;;
14760;SDS011;7472;45.396;5.272;2022-12-29T08:21:26;10.98;;;7.20;;
14760;SDS011;7472;45.396;5.272;2022-12-29T08:23:54;10.20;;;7.88;;
14760;SDS011;7472;45.396;5.272;2022-12-29T08:26:23;9.80;;;7.07;;
14760;SDS011;7472;45.396;5.272;2022-12-29T08:28:51;8.73;;;7.30;;
14760;SDS011;7472;45.396;5.272;2022-12-29T08:31:19;8.27;;;6.75;;
14760;SDS011;7472;45.396;5.272;2022-12-29T08:33:48;7.00;;;5.57;;
14760;SDS011;7472;45.396;5.272;2022-12-29T08:36:16;8.98;;;6.78;;
14760;SDS011;7472;45.396;5.272;2022-12-29T08:38:43;11.27;;;6.40;;
14760;SDS011;7472;45.396;5.272;2022-12-29T08:41:11;10.05;;;5.85;;
14760;SDS011;7472;45.396;5.272;2022-12-29T08:43:44;8.63;;;5.95;;
14760;SDS011;7472;45.396;5.272;2022-12-29T08:46:12;9.73;;;5.97;;
14760;SDS011;7472;45.396;5.272;2022-12-29T08:48:39;9.77;;;6.07;;
14760;SDS011;7472;45.396;5.272;2022-12-29T08:51:07;7.55;;;5.07;;
14760;SDS011;7472;45.396;5.272;2022-12-29T08:53:34;9.70;;;5.10;;
14760;SDS011;7472;45.396;5.272;2022-12-29T08:56:02;7.18;;;4.72;;
14760;SDS011;7472;45.396;5.272;2022-12-29T08:58:30;9.25;;;5.28;;
14760;SDS011;7472;45.396;5.272;2022-12-29T09:00:59;6.93;;;5.05;;
14760;SDS011;7472;45.396;5.272;2022-12-29T09:03:26;6.13;;;5.53;;
14760;SDS011;7472;45.396;5.272;2022-12-29T09:05:54;10.43;;;5.60;;
14760;SDS011;7472;45.396;5.272;2022-12-29T09:08:22;6.10;;;4.13;;
14760;SDS011;7472;45.396;5.272;2022-12-29T09:10:49;9.13;;;4.47;;
14760;SDS011;7472;45.396;5.272;2022-12-29T09:13:17;7.10;;;3.35;;
14760;SDS011;7472;45.396;5.272;2022-12-29T09:15:45;8.23;;;4.07;;
14760;SDS011;7472;45.396;5.272;2022-12-29T09:18:14;9.57;;;6.60;;
14760;SDS011;7472;45.396;5.272;2022-12-29T09:20:48;12.27;;;7.22;;
14760;SDS011;7472;45.396;5.272;2022-12-29T09:23:15;6.15;;;5.07;;
14760;SDS011;7472;45.396;5.272;2022-12-29T09:25:43;8.50;;;4.50;;
14760;SDS011;7472;45.396;5.272;2022-12-29T09:28:10;8.75;;;4.90;;
14760;SDS011;7472;45.396;5.272;2022-12-29T09:30:38;8.00;;;4.70;;
14760;SDS011;7472;45.396;5.272;2022-12-29T09:33:05;4.78;;;3.80;;
14760;SDS011;7472;45.396;5.272;2022-12-29T09:35:34;7.78;;;4.28;;
14760;SDS011;7472;45.396;5.272;2022-12-29T09:38:02;4.80;;;3.92;;
14760;SDS011;7472;45.396;5.272;2022-12-29T09:40:29;5.53;;;3.55;;
14760;SDS011;7472;45.396;5.272;2022-12-29T09:43:13;8.00;;;3.88;;
14760;SDS011;7472;45.396;5.272;2022-12-29T09:45:42;5.45;;;4.15;;
14760;SDS011;7472;45.396;5.272;2022-12-29T09:48:11;7.95;;;3.97;;
14760;SDS011;7472;45.396;5.272;2022-12-29T09:50:42;7.97;;;4.25;;
14760;SDS011;7472;45.396;5.272;2022-12-29T09:53:14;8.35;;;3.80;;
14760;SDS011;7472;45.396;5.272;2022-12-29T09:55:44;6.13;;;3.42;;
14760;SDS011;7472;45.396;5.272;2022-12-29T09:58:14;5.63;;;3.90;;
14760;SDS011;7472;45.396;5.272;2022-12-29T10:00:47;5.75;;;4.00;;
14760;SDS011;7472;45.396;5.272;2022-12-29T10:03:15;6.00;;;4.05;;
14760;SDS011;7472;45.396;5.272;2022-12-29T10:05:46;8.00;;;4.40;;
14760;SDS011;7472;45.396;5.272;2022-12-29T10:08:19;5.68;;;3.53;;
14760;SDS011;7472;45.396;5.272;2022-12-29T10:10:50;7.53;;;3.53;;
14760;SDS011;7472;45.396;5.272;2022-12-29T10:13:25;7.20;;;3.75;;
14760;SDS011;7472;45.396;5.272;2022-12-29T10:15:56;7.70;;;4.38;;
14760;SDS011;7472;45.396;5.272;2022-12-29T10:18:31;10.65;;;4.60;;
14760;SDS011;7472;45.396;5.272;2022-12-29T10:21:03;7.95;;;4.20;;
14760;SDS011;7472;45.396;5.272;2022-12-29T10:23:33;4.90;;;3.53;;
14760;SDS011;7472;45.396;5.272;2022-12-29T10:26:02;7.80;;;3.53;;
14760;SDS011;7472;45.396;5.272;2022-12-29T10:28:34;6.07;;;4.18;;
14760;SDS011;7472;45.396;5.272;2022-12-29T10:31:03;5.72;;;3.53;;
14760;SDS011;7472;45.396;5.272;2022-12-29T10:33:34;5.30;;;3.05;;
14760;SDS011;7472;45.396;5.272;2022-12-29T10:36:04;4.68;;;3.47;;
14760;SDS011;7472;45.396;5.272;2022-12-29T10:38:38;5.63;;;3.60;;
14760;SDS011;7472;45.396;5.272;2022-12-29T10:41:08;6.82;;;3.47;;
14760;SDS011;7472;45.396;5.272;2022-12-29T10:43:41;8.30;;;3.33;;
14760;SDS011;7472;45.396;5.272;2022-12-29T10:46:11;5.35;;;3.05;;
14760;SDS011;7472;45.396;5.272;2022-12-29T10:48:39;7.30;;;3.47;;
14760;SDS011;7472;45.396;5.272;2022-12-29T10:51:20;6.53;;;3.45;;
14760;SDS011;7472;45.396;5.272;2022-12-29T10:53:49;6.78;;;3.50;;
14760;SDS011;7472;45.396;5.272;2022-12-29T10:56:21;5.60;;;3.47;;
14760;SDS011;7472;45.396;5.272;2022-12-29T10:58:52;5.95;;;3.17;;
14760;SDS011;7472;45.396;5.272;2022-12-29T11:01:22;8.68;;;3.53;;
14760;SDS011;7472;45.396;5.272;2022-12-29T11:03:57;11.55;;;7.38;;
14760;SDS011;7472;45.396;5.272;2022-12-29T11:06:28;8.13;;;4.20;;
14760;SDS011;7472;45.396;5.272;2022-12-29T11:08:56;5.30;;;3.90;;
14760;SDS011;7472;45.396;5.272;2022-12-29T11:11:25;4.93;;;3.10;;
14760;SDS011;7472;45.396;5.272;2022-12-29T11:13:57;5.72;;;3.22;;
14760;SDS011;7472;45.396;5.272;2022-12-29T11:16:28;5.60;;;3.20;;
14760;SDS011;7472;45.396;5.272;2022-12-29T11:18:58;8.32;;;3.53;;
14760;SDS011;7472;45.396;5.272;2022-12-29T11:21:30;5.13;;;3.28;;
14760;SDS011;7472;45.396;5.272;2022-12-29T11:23:59;5.15;;;3.00;;
14760;SDS011;7472;45.396;5.272;2022-12-29T11:26:27;9.38;;;3.33;;
14760;SDS011;7472;45.396;5.272;2022-12-29T11:31:50;5.35;;;2.83;;
14760;SDS011;7472;45.396;5.272;2022-12-29T11:34:20;8.40;;;3.50;;
14760;SDS011;7472;45.396;5.272;2022-12-29T11:36:50;5.32;;;3.30;;
14760;SDS011;7472;45.396;5.272;2022-12-29T11:39:24;6.93;;;3.65;;
14760;SDS011;7472;45.396;5.272;2022-12-29T11:41:53;7.47;;;3.53;;
14760;SDS011;7472;45.396;5.272;2022-12-29T11:44:21;15.13;;;7.72;;
14760;SDS011;7472;45.396;5.272;2022-12-29T11:46:49;8.63;;;3.90;;
14760;SDS011;7472;45.396;5.272;2022-12-29T11:49:19;7.55;;;3.75;;
14760;SDS011;7472;45.396;5.272;2022-12-29T11:51:47;5.68;;;3.30;;
14760;SDS011;7472;45.396;5.272;2022-12-29T11:54:18;8.05;;;4.55;;
14760;SDS011;7472;45.396;5.272;2022-12-29T11:56:47;13.23;;;5.72;;
14760;SDS011;7472;45.396;5.272;2022-12-29T11:59:36;8.15;;;4.03;;
14760;SDS011;7472;45.396;5.272;2022-12-29T12:04:58;5.20;;;2.55;;
14760;SDS011;7472;45.396;5.272;2022-12-29T12:07:33;7.82;;;3.75;;
14760;SDS011;7472;45.396;5.272;2022-12-29T12:10:04;5.05;;;2.80;;
14760;SDS011;7472;45.396;5.272;2022-12-29T12:12:37;6.05;;;3.33;;
14760;SDS011;7472;45.396;5.272;2022-12-29T12:15:08;4.50;;;3.20;;
14760;SDS011;7472;45.396;5.272;2022-12-29T12:17:46;7.78;;;3.15;;
14760;SDS011;7472;45.396;5.272;2022-12-29T12:20:18;3.97;;;2.42;;
14760;SDS011;7472;45.396;5.272;2022-12-29T12:22:50;9.77;;;3.20;;
14760;SDS011;7472;45.396;5.272;2022-12-29T12:25:21;6.60;;;2.40;;
14760;SDS011;7472;45.396;5.272;2022-12-29T12:27:51;9.02;;;3.55;;
14760;SDS011;7472;45.396;5.272;2022-12-29T12:30:20;9.05;;;2.67;;
14760;SDS011;7472;45.396;5.272;2022-12-29T12:32:49;7.70;;;3.03;;
14760;SDS011;7472;45.396;5.272;2022-12-29T12:35:26;10.65;;;3.30;;
14760;SDS011;7472;45.396;5.272;2022-12-29T12:38:11;9.55;;;4.32;;
14760;SDS011;7472;45.396;5.272;2022-12-29T12:40:50;17.65;;;6.72;;
14760;SDS011;7472;45.396;5.272;2022-12-29T12:43:37;24.35;;;7.55;;
14760;SDS011;7472;45.396;5.272;2022-12-29T12:46:10;12.10;;;4.82;;
14760;SDS011;7472;45.396;5.272;2022-12-29T12:48:55;15.77;;;6.35;;
14760;SDS011;7472;45.396;5.272;2022-12-29T12:51:27;8.85;;;4.78;;
14760;SDS011;7472;45.396;5.272;2022-12-29T12:54:01;8.52;;;4.20;;
14760;SDS011;7472;45.396;5.272;2022-12-29T12:56:43;8.48;;;4.30;;
14760;SDS011;7472;45.396;5.272;2022-12-29T12:59:17;6.68;;;3.92;;
14760;SDS011;7472;45.396;5.272;2022-12-29T13:01:47;9.35;;;4.63;;
14760;SDS011;7472;45.396;5.272;2022-12-29T13:04:26;7.38;;;4.65;;
14760;SDS011;7472;45.396;5.272;2022-12-29T13:06:56;8.77;;;4.57;;
14760;SDS011;7472;45.396;5.272;2022-12-29T13:09:28;8.85;;;4.85;;
14760;SDS011;7472;45.396;5.272;2022-12-29T13:12:03;9.18;;;4.28;;
14760;SDS011;7472;45.396;5.272;2022-12-29T13:14:42;12.05;;;5.75;;
14760;SDS011;7472;45.396;5.272;2022-12-29T13:17:15;13.07;;;5.72;;
14760;SDS011;7472;45.396;5.272;2022-12-29T13:19:46;9.88;;;5.70;;
14760;SDS011;7472;45.396;5.272;2022-12-29T13:22:19;8.30;;;3.75;;
14760;SDS011;7472;45.396;5.272;2022-12-29T13:24:52;8.15;;;3.22;;
14760;SDS011;7472;45.396;5.272;2022-12-29T13:27:27;10.48;;;4.47;;
14760;SDS011;7472;45.396;5.272;2022-12-29T13:29:58;6.18;;;4.45;;
14760;SDS011;7472;45.396;5.272;2022-12-29T13:32:31;7.55;;;4.78;;
14760;SDS011;7472;45.396;5.272;2022-12-29T13:35:06;11.20;;;4.43;;
14760;SDS011;7472;45.396;5.272;2022-12-29T13:37:42;7.05;;;4.85;;
14760;SDS011;7472;45.396;5.272;2022-12-29T13:40:12;14.50;;;4.85;;
14760;SDS011;7472;45.396;5.272;2022-12-29T13:42:42;10.20;;;4.80;;
14760;SDS011;7472;45.396;5.272;2022-12-29T13:45:11;10.80;;;5.18;;
14760;SDS011;7472;45.396;5.272;2022-12-29T13:47:40;11.05;;;4.60;;
14760;SDS011;7472;45.396;5.272;2022-12-29T13:50:12;11.05;;;5.63;;
14760;SDS011;7472;45.396;5.272;2022-12-29T13:52:43;12.80;;;8.23;;
14760;SDS011;7472;45.396;5.272;2022-12-29T13:55:18;14.05;;;5.68;;
14760;SDS011;7472;45.396;5.272;2022-12-29T13:57:49;6.82;;;4.80;;
14760;SDS011;7472;45.396;5.272;2022-12-29T14:00:19;12.27;;;5.25;;
14760;SDS011;7472;45.396;5.272;2022-12-29T14:02:53;8.07;;;4.97;;
14760;SDS011;7472;45.396;5.272;2022-12-29T14:05:30;13.70;;;8.25;;
14760;SDS011;7472;45.396;5.272;2022-12-29T14:07:58;20.20;;;10.82;;
14760;SDS011;7472;45.396;5.272;2022-12-29T14:10:27;13.05;;;6.80;;
14760;SDS011;7472;45.396;5.272;2022-12-29T14:13:01;13.43;;;6.43;;
14760;SDS011;7472;45.396;5.272;2022-12-29T14:15:29;10.45;;;6.43;;
14760;SDS011;7472;45.396;5.272;2022-12-29T14:18:02;13.95;;;7.10;;
14760;SDS011;7472;45.396;5.272;2022-12-29T14:20:30;15.98;;;6.30;;
14760;SDS011;7472;45.396;5.272;2022-12-29T14:22:59;12.13;;;5.63;;
14760;SDS011;7472;45.396;5.272;2022-12-29T14:28:20;14.30;;;5.95;;
14760;SDS011;7472;45.396;5.272;2022-12-29T14:30:50;12.70;;;5.28;;
14760;SDS011;7472;45.396;5.272;2022-12-29T14:33:18;13.00;;;5.05;;
14760;SDS011;7472;45.396;5.272;2022-12-29T14:35:46;15.88;;;5.15;;
14760;SDS011;7472;45.396;5.272;2022-12-29T14:38:18;7.25;;;4.82;;
14760;SDS011;7472;45.396;5.272;2022-12-29T14:40:46;11.38;;;4.60;;
14760;SDS011;7472;45.396;5.272;2022-12-29T14:43:17;13.15;;;5.07;;
14760;SDS011;7472;45.396;5.272;2022-12-29T14:45:48;11.65;;;5.22;;
14760;SDS011;7472;45.396;5.272;2022-12-29T14:51:16;10.20;;;4.47;;
14760;SDS011;7472;45.396;5.272;2022-12-29T14:53:46;9.45;;;5.25;;
14760;SDS011;7472;45.396;5.272;2022-12-29T14:56:14;11.05;;;5.03;;
14760;SDS011;7472;45.396;5.272;2022-12-29T14:58:48;13.68;;;5.65;;
14760;SDS011;7472;45.396;5.272;2022-12-29T15:01:18;12.43;;;5.63;;
14760;SDS011;7472;45.396;5.272;2022-12-29T15:03:47;11.75;;;6.45;;
14760;SDS011;7472;45.396;5.272;2022-12-29T15:06:17;15.65;;;6.15;;
14760;SDS011;7472;45.396;5.272;2022-12-29T15:08:48;15.05;;;6.22;;
14760;SDS011;7472;45.396;5.272;2022-12-29T15:11:17;10.38;;;5.15;;
14760;SDS011;7472;45.396;5.272;2022-12-29T15:13:45;10.70;;;5.60;;
14760;SDS011;7472;45.396;5.272;2022-12-29T15:16:25;14.95;;;6.43;;
14760;SDS011;7472;45.396;5.272;2022-12-29T15:18:53;12.48;;;5.15;;
14760;SDS011;7472;45.396;5.272;2022-12-29T15:21:22;8.82;;;4.15;;
14760;SDS011;7472;45.396;5.272;2022-12-29T15:23:51;9.75;;;5.72;;
14760;SDS011;7472;45.396;5.272;2022-12-29T15:26:19;15.10;;;6.07;;